Time;durP1;ratioP1;P1;durP2;ratioP2;P2;SDS_P1;SDS_P2;PMS_P1;PMS_P2;Temp;Humidity;BMP_temperature;BMP_pressure;BME280_temperature;BME280_humidity;BME280_pressure;Samples;Min_cycle;Max_cycle;Signal;HPM_P1;HPM_P2
2021/05/14 00:01:48;;;;;;;6.73;6.03;;;;;;;13.22;69.68;99816.38;5058605;28;20661;-80
2021/05/14 00:04:14;;;;;;;6.23;5.50;;;;;;;13.20;69.07;99812.00;5058370;28;20243;-81
2021/05/14 00:06:41;;;;;;;5.97;5.37;;;;;;;13.20;69.34;99813.84;5058393;28;20198;-80
2021/05/14 00:09:07;;;;;;;8.50;6.10;;;;;;;13.18;69.35;99810.44;5057152;28;20226;-79
2021/05/14 00:11:33;;;;;;;5.90;5.27;;;;;;;13.18;69.26;99805.09;5057639;28;20296;-80
2021/05/14 00:13:59;;;;;;;5.23;4.73;;;;;;;13.16;69.37;99805.22;5057817;28;20231;-80
2021/05/14 00:16:25;;;;;;;5.73;5.23;;;;;;;13.17;69.59;99806.06;5057774;28;20216;-80
2021/05/14 00:18:52;;;;;;;8.20;6.03;;;;;;;13.16;69.77;99799.88;5057148;28;20234;-80
2021/05/14 00:21:18;;;;;;;6.50;5.83;;;;;;;13.14;70.07;99801.81;5058618;28;20224;-81
2021/05/14 00:23:45;;;;;;;6.03;5.50;;;;;;;13.12;69.79;99801.09;5058420;28;20296;-81
2021/05/14 00:26:11;;;;;;;8.87;6.10;;;;;;;13.11;70.07;99791.38;5057600;28;20206;-81
2021/05/14 00:28:37;;;;;;;6.40;5.80;;;;;;;13.10;70.39;99795.03;5057407;28;20256;-81
2021/05/14 00:31:03;;;;;;;7.47;6.30;;;;;;;13.09;70.32;99789.81;5057192;28;20206;-81
2021/05/14 00:33:29;;;;;;;7.30;6.30;;;;;;;13.08;70.63;99793.47;5057769;28;20704;-80
2021/05/14 00:35:55;;;;;;;7.20;6.17;;;;;;;13.05;70.55;99789.25;5056956;28;20202;-80
2021/05/14 00:38:21;;;;;;;7.57;6.67;;;;;;;13.04;70.63;99787.56;5057914;28;20308;-82
2021/05/14 00:40:48;;;;;;;7.13;6.23;;;;;;;13.03;70.67;99787.69;5057923;28;20203;-82
2021/05/14 00:43:14;;;;;;;7.27;6.03;;;;;;;13.01;70.87;99787.81;5057927;28;20210;-82
2021/05/14 00:45:40;;;;;;;9.73;7.40;;;;;;;12.99;70.80;99789.78;5058290;28;20198;-82
2021/05/14 00:48:06;;;;;;;7.03;6.33;;;;;;;12.97;70.93;99793.56;5057857;28;20205;-81
2021/05/14 00:50:32;;;;;;;7.33;6.50;;;;;;;12.94;70.92;99794.66;5057964;28;20280;-81
2021/05/14 00:52:59;;;;;;;10.33;7.00;;;;;;;12.93;71.02;99792.97;5058131;28;20208;-81
2021/05/14 00:55:25;;;;;;;7.57;6.77;;;;;;;12.92;70.89;99788.59;5060783;28;20716;-81
2021/05/14 00:57:52;;;;;;;8.20;6.90;;;;;;;12.90;70.97;99795.09;5058660;28;20213;-81
2021/05/14 01:00:18;;;;;;;7.73;6.67;;;;;;;12.86;71.28;99798.03;5045184;28;20233;-80
2021/05/14 01:02:45;;;;;;;8.53;7.37;;;;;;;12.83;71.26;99790.25;5059025;28;20205;-80
2021/05/14 01:05:12;;;;;;;9.43;7.33;;;;;;;12.82;71.25;99798.41;5060249;28;20300;-81
2021/05/14 01:07:38;;;;;;;8.20;7.13;;;;;;;12.79;71.42;99788.81;5059566;28;20672;-81
2021/05/14 01:10:04;;;;;;;7.87;7.00;;;;;;;12.75;71.53;99790.06;5059725;28;20313;-79
2021/05/14 01:12:30;;;;;;;8.57;7.67;;;;;;;12.74;71.65;99795.53;5069596;28;20284;-80
2021/05/14 01:14:57;;;;;;;9.43;7.53;;;;;;;12.70;71.60;99802.16;5062350;28;20246;-80
2021/05/14 01:17:23;;;;;;;8.17;7.13;;;;;;;12.66;71.67;99798.88;5059221;28;20205;-80
2021/05/14 01:19:50;;;;;;;8.77;7.30;;;;;;;12.62;71.90;99789.44;5059226;28;20225;-82
2021/05/14 01:22:18;;;;;;;8.97;7.43;;;;;;;12.60;71.81;99794.06;5058884;28;20205;-80
2021/05/14 01:24:44;;;;;;;8.20;7.40;;;;;;;12.57;71.98;99793.47;5055353;28;20203;-80
2021/05/14 01:27:11;;;;;;;8.37;7.57;;;;;;;12.52;72.22;99794.72;5057926;28;20206;-80
2021/05/14 01:29:37;;;;;;;8.60;7.70;;;;;;;12.50;72.19;99798.50;5057605;28;20230;-81
2021/05/14 01:32:03;;;;;;;10.00;8.33;;;;;;;12.45;72.13;99796.19;5058543;28;20214;-81
2021/05/14 01:34:29;;;;;;;8.63;7.83;;;;;;;12.42;72.33;99792.94;5058248;28;20229;-80
2021/05/14 01:36:55;;;;;;;10.73;7.60;;;;;;;12.38;72.71;99795.00;5050658;28;20212;-80
2021/05/14 01:39:23;;;;;;;8.53;7.70;;;;;;;12.34;72.71;99790.94;5058488;28;20225;-82
2021/05/14 01:41:50;;;;;;;8.70;7.40;;;;;;;12.32;72.87;99794.69;5059968;28;20215;-81
2021/05/14 01:44:16;;;;;;;8.43;7.13;;;;;;;12.28;72.74;99787.91;5059065;28;20202;-81
2021/05/14 01:46:42;;;;;;;9.47;6.70;;;;;;;12.25;72.97;99791.69;5059670;28;20216;-80
2021/05/14 01:49:08;;;;;;;8.53;7.43;;;;;;;12.23;72.97;99792.78;5057825;28;20229;-82
2021/05/14 01:51:34;;;;;;;9.33;7.07;;;;;;;12.20;73.15;99790.38;5057696;28;20686;-80
2021/05/14 01:54:00;;;;;;;8.07;7.27;;;;;;;12.14;73.29;99789.94;5057549;28;20233;-80
2021/05/14 01:56:28;;;;;;;8.33;7.27;;;;;;;12.12;73.03;99783.03;5057938;28;20236;-80
2021/05/14 01:58:54;;;;;;;7.77;6.33;;;;;;;12.07;73.41;99785.22;5057572;28;20712;-80
2021/05/14 02:01:21;;;;;;;8.50;6.80;;;;;;;12.04;73.49;99780.97;5058384;28;20201;-80
2021/05/14 02:03:47;;;;;;;8.57;6.90;;;;;;;12.02;73.68;99784.75;5057939;28;20219;-80
2021/05/14 02:06:13;;;;;;;8.63;6.90;;;;;;;12.00;73.78;99778.72;5057553;28;20213;-79
2021/05/14 02:08:39;;;;;;;7.30;6.57;;;;;;;11.98;73.98;99778.00;5056749;28;20221;-79
2021/05/14 02:11:09;;;;;;;9.23;7.00;;;;;;;11.94;73.71;99777.41;5056863;28;20205;-79
2021/05/14 02:13:36;;;;;;;7.87;7.07;;;;;;;11.91;74.18;99774.13;5057885;28;20587;-80
2021/05/14 02:16:02;;;;;;;9.27;6.67;;;;;;;11.89;74.29;99776.91;5057404;28;20212;-81
2021/05/14 02:18:28;;;;;;;8.73;7.07;;;;;;;11.87;74.31;99773.53;5057798;28;20217;-80
2021/05/14 02:20:54;;;;;;;9.00;7.10;;;;;;;11.88;74.50;99780.56;5054993;28;20250;-79
2021/05/14 02:23:20;;;;;;;8.80;6.57;;;;;;;11.87;74.61;99781.53;5051725;28;20210;-81
2021/05/14 02:25:46;;;;;;;6.90;6.07;;;;;;;11.87;74.67;99778.84;5058180;28;20198;-81
2021/05/14 02:28:12;;;;;;;10.23;6.87;;;;;;;11.87;74.75;99773.53;5051080;28;20211;-80
2021/05/14 02:30:39;;;;;;;8.40;6.83;;;;;;;11.87;75.00;99775.34;5039282;28;20210;-80
2021/05/14 02:33:07;;;;;;;7.50;6.30;;;;;;;11.87;74.81;99775.34;5054091;28;20202;-80
2021/05/14 02:35:33;;;;;;;8.40;6.83;;;;;;;11.85;74.84;99775.47;5061166;28;20225;-82
2021/05/14 02:37:59;;;;;;;7.37;6.60;;;;;;;11.83;75.01;99777.41;5059731;28;20220;-82
2021/05/14 02:40:25;;;;;;;7.30;6.60;;;;;;;11.80;75.47;99775.88;5054418;28;20225;-81
2021/05/14 02:42:51;;;;;;;8.87;6.53;;;;;;;11.78;75.13;99780.47;5061284;28;20289;-81
2021/05/14 02:45:17;;;;;;;9.73;7.70;;;;;;;11.76;75.40;99777.09;5060938;28;20206;-81
2021/05/14 02:47:44;;;;;;;8.50;7.20;;;;;;;11.75;75.39;99775.34;5063312;28;20566;-81
2021/05/14 02:50:11;;;;;;;7.77;6.77;;;;;;;11.76;75.63;99773.56;5062337;28;20230;-82
2021/05/14 02:52:37;;;;;;;7.57;6.60;;;;;;;11.74;75.48;99773.66;5063273;28;20213;-82
2021/05/14 02:55:06;;;;;;;10.33;7.60;;;;;;;11.74;75.55;99773.66;5064202;28;20232;-82
2021/05/14 02:57:32;;;;;;;10.73;7.70;;;;;;;11.71;75.62;99773.91;5063604;28;20248;-82
2021/05/14 02:59:58;;;;;;;8.53;7.63;;;;;;;11.70;75.83;99782.03;5063842;28;20235;-81
2021/05/14 03:02:24;;;;;;;8.40;7.47;;;;;;;11.68;75.76;99773.31;5061859;28;20652;-81
2021/05/14 03:04:51;;;;;;;11.63;8.43;;;;;;;11.66;75.77;99773.44;5062257;28;20724;-82
2021/05/14 03:07:19;;;;;;;8.57;7.70;;;;;;;11.66;76.05;99775.25;5062102;28;20207;-83
2021/05/14 03:09:45;;;;;;;11.90;8.33;;;;;;;11.65;76.05;99785.06;5060517;28;20230;-83
2021/05/14 03:12:11;;;;;;;9.13;7.50;;;;;;;11.67;76.18;99782.28;5061821;28;20236;-82
2021/05/14 03:14:37;;;;;;;9.60;7.97;;;;;;;11.67;76.12;99782.28;5061034;28;20227;-82
2021/05/14 03:17:05;;;;;;;9.07;7.17;;;;;;;11.67;76.22;99769.78;5060700;28;20216;-82
2021/05/14 03:19:31;;;;;;;8.63;7.70;;;;;;;11.66;76.30;99778.75;5060569;28;20237;-80
2021/05/14 03:21:58;;;;;;;10.17;8.70;;;;;;;11.65;76.35;99781.56;5060538;28;20206;-81
2021/05/14 03:24:24;;;;;;;10.20;7.87;;;;;;;11.64;76.35;99778.06;5060571;28;20208;-80
2021/05/14 03:26:53;;;;;;;10.37;8.30;;;;;;;11.62;76.33;99777.34;5060786;28;20284;-80
2021/05/14 03:29:19;;;;;;;10.93;8.30;;;;;;;11.60;76.33;99781.09;5061368;28;20337;-80
2021/05/14 03:31:45;;;;;;;12.43;8.40;;;;;;;11.57;76.41;99786.69;5061316;28;20703;-80
2021/05/14 03:34:11;;;;;;;10.40;8.60;;;;;;;11.57;76.73;99781.34;5060879;28;20316;-80
2021/05/14 03:36:37;;;;;;;9.70;8.03;;;;;;;11.56;76.64;99788.50;5060760;28;20210;-80
2021/05/14 03:39:08;;;;;;;10.93;9.13;;;;;;;11.57;76.76;99790.19;5079013;22;20290;-66
2021/05/14 03:41:45;;;;;;;11.77;9.00;;;;;;;11.55;76.74;99792.13;5035734;28;20252;-65
2021/05/14 03:44:11;;;;;;;10.83;9.53;;;;;;;11.53;76.92;99786.06;5038547;28;20226;-65
2021/05/14 03:46:37;;;;;;;11.30;9.20;;;;;;;11.54;77.03;99794.91;5034940;28;20203;-66
2021/05/14 03:49:04;;;;;;;13.20;9.93;;;;;;;11.51;77.23;99789.84;5038924;28;20217;-66
2021/05/14 03:51:30;;;;;;;10.17;9.13;;;;;;;11.49;77.11;99796.13;5042489;28;20572;-64
2021/05/14 03:53:56;;;;;;;10.27;9.00;;;;;;;11.47;77.17;99791.88;5058560;22;20230;-62
2021/05/14 03:56:23;;;;;;;12.30;10.23;;;;;;;11.46;77.35;99795.56;5031337;28;20682;-63
2021/05/14 03:58:49;;;;;;;14.03;9.87;;;;;;;11.44;77.43;99793.00;5037436;28;20217;-62
2021/05/14 04:01:16;;;;;;;13.07;9.87;;;;;;;11.43;77.39;99787.81;5029326;28;20764;-61
2021/05/14 04:03:42;;;;;;;12.73;10.40;;;;;;;11.41;77.63;99789.75;5037411;28;20236;-63
2021/05/14 04:06:08;;;;;;;12.73;11.23;;;;;;;11.41;77.62;99787.06;5029167;28;20566;-61
2021/05/14 04:08:34;;;;;;;12.53;10.27;;;;;;;11.40;77.91;99788.88;5029824;28;20210;-61
2021/05/14 04:11:19;;;;;;;15.13;11.90;;;;;;;11.38;77.81;99787.31;5035602;28;20219;-61
2021/05/14 04:16:30;;;;;;;11.90;10.30;;;;;;;11.36;77.77;99791.91;5028407;28;20244;-63
2021/05/14 04:18:56;;;;;;;17.13;12.87;;;;;;;11.35;77.99;99788.41;5031245;28;20656;-63
2021/05/14 04:21:22;;;;;;;16.80;11.43;;;;;;;11.36;78.09;99786.59;5031748;28;20213;-61
2021/05/14 04:23:48;;;;;;;13.53;11.57;;;;;;;11.37;78.07;99780.28;5030116;28;20229;-63
2021/05/14 04:26:14;;;;;;;13.80;11.80;;;;;;;11.38;78.21;99790.84;5029457;28;20251;-63
2021/05/14 04:28:40;;;;;;;14.73;12.23;;;;;;;11.39;78.03;99789.00;5031135;28;20675;-62
2021/05/14 04:31:07;;;;;;;18.30;12.60;;;;;;;11.39;78.25;99791.69;5027494;28;20245;-59
2021/05/14 04:33:33;;;;;;;14.27;12.87;;;;;;;11.38;78.26;99792.66;5030716;28;20229;-62
2021/05/14 04:35:59;;;;;;;18.00;13.23;;;;;;;11.36;78.22;99795.44;5028942;28;20585;-63
2021/05/14 04:38:25;;;;;;;16.87;13.13;;;;;;;11.35;78.17;99792.88;5028365;28;20293;-63
2021/05/14 04:40:51;;;;;;;18.60;14.53;;;;;;;11.35;78.30;99800.88;5030020;28;20656;-62
2021/05/14 04:43:17;;;;;;;19.07;14.07;;;;;;;11.34;78.46;99796.53;5031556;28;20309;-63
2021/05/14 04:45:43;;;;;;;17.70;14.20;;;;;;;11.33;78.37;99808.16;5031468;28;20221;-64
2021/05/14 04:48:10;;;;;;;21.03;15.07;;;;;;;11.31;78.65;99808.28;5031537;28;20321;-63
2021/05/14 04:50:37;;;;;;;17.73;14.47;;;;;;;11.31;78.82;99802.09;5030523;28;20209;-63
2021/05/14 04:53:06;;;;;;;17.90;14.97;;;;;;;11.30;78.72;99811.91;5031256;28;20317;-61
2021/05/14 04:55:32;;;;;;;17.90;15.60;;;;;;;11.30;78.47;99811.06;5027768;28;20226;-64
2021/05/14 04:57:58;;;;;;;20.20;15.93;;;;;;;11.32;78.90;99814.47;5027793;28;20461;-64
2021/05/14 05:00:24;;;;;;;23.83;18.10;;;;;;;11.31;79.01;99812.75;5026849;28;20199;-64
2021/05/14 05:02:51;;;;;;;23.50;18.43;;;;;;;11.31;78.70;99812.75;5026113;28;20262;-61
2021/05/14 05:05:18;;;;;;;25.37;17.67;;;;;;;11.30;79.33;99817.25;5022773;28;20591;-63
2021/05/14 05:07:44;;;;;;;24.97;18.60;;;;;;;11.31;79.01;99818.09;5025516;28;20817;-63
2021/05/14 05:10:11;;;;;;;26.37;18.97;;;;;;;11.31;79.10;99815.41;5027669;28;20581;-64
2021/05/14 05:12:37;;;;;;;25.87;19.17;;;;;;;11.29;79.24;99815.53;5028098;28;20719;-62
2021/05/14 05:15:04;;;;;;;22.67;18.03;;;;;;;11.31;79.25;99820.75;5028513;28;20226;-63
2021/05/14 05:17:30;;;;;;;26.13;19.57;;;;;;;11.32;79.32;99817.97;5028781;28;20206;-63
2021/05/14 05:19:56;;;;;;;26.63;18.93;;;;;;;11.34;79.37;99823.19;5028716;28;20672;-63
2021/05/14 05:22:23;;;;;;;28.87;20.00;;;;;;;11.35;79.28;99822.22;5027970;28;20228;-62
2021/05/14 05:24:49;;;;;;;25.67;18.43;;;;;;;11.33;79.49;99819.66;5027944;28;20210;-61
2021/05/14 05:27:16;;;;;;;24.47;18.43;;;;;;;11.34;79.46;99812.50;5028613;28;20210;-63
2021/05/14 05:29:42;;;;;;;28.27;19.63;;;;;;;11.34;79.47;99815.19;5028758;28;20611;-63
2021/05/14 05:32:08;;;;;;;25.47;19.13;;;;;;;11.36;79.60;99819.44;5035612;28;20206;-63
2021/05/14 05:34:34;;;;;;;29.77;19.60;;;;;;;11.37;79.43;99814.94;5039876;28;20627;-63
2021/05/14 05:37:00;;;;;;;27.90;19.63;;;;;;;11.39;79.49;99824.53;5042825;28;20225;-64
2021/05/14 05:39:27;;;;;;;24.40;19.63;;;;;;;11.41;79.64;99825.25;5040625;28;20237;-60
2021/05/14 05:41:53;;;;;;;28.33;20.07;;;;;;;11.40;79.35;99823.56;5038024;28;20218;-61
2021/05/14 05:44:19;;;;;;;24.13;19.17;;;;;;;11.42;79.43;99831.44;5043984;28;20396;-60
2021/05/14 05:46:46;;;;;;;25.30;19.30;;;;;;;11.43;79.41;99828.66;5042540;28;20285;-61
2021/05/14 05:49:12;;;;;;;25.10;18.97;;;;;;;11.43;79.47;99836.66;5040367;28;20668;-61
2021/05/14 05:51:38;;;;;;;26.53;20.33;;;;;;;11.42;79.37;99839.44;5043968;28;20198;-61
2021/05/14 05:54:05;;;;;;;27.37;20.10;;;;;;;11.44;79.60;99842.81;5045574;28;20337;-60
2021/05/14 05:56:32;;;;;;;27.53;20.30;;;;;;;11.46;79.39;99841.69;5042743;28;20210;-63
2021/05/14 05:58:58;;;;;;;29.27;19.87;;;;;;;11.49;79.41;99843.28;5044088;28;20728;-63
2021/05/14 06:01:24;;;;;;;27.77;20.23;;;;;;;11.52;79.71;99847.53;5039377;28;20682;-62
2021/05/14 06:03:50;;;;;;;28.23;20.07;;;;;;;11.54;79.62;99851.78;5041649;28;20225;-63
2021/05/14 06:06:16;;;;;;;30.70;21.17;;;;;;;11.58;79.46;99855.91;5042483;28;20295;-63
2021/05/14 06:08:42;;;;;;;29.67;21.23;;;;;;;11.61;79.59;99850.31;5030721;28;20606;-63
2021/05/14 06:11:08;;;;;;;24.13;18.83;;;;;;;11.63;79.45;99861.72;5026602;28;20288;-63
2021/05/14 06:13:35;;;;;;;28.17;19.73;;;;;;;11.65;79.41;99854.41;5033157;28;20226;-62
2021/05/14 06:16:02;;;;;;;26.40;18.63;;;;;;;11.67;79.29;99862.28;5036566;28;20221;-63
2021/05/14 06:18:33;;;;;;;25.90;19.33;;;;;;;11.69;79.36;99866.53;5032398;28;20435;-62
2021/05/14 06:21:00;;;;;;;27.53;19.60;;;;;;;11.73;79.20;99867.16;5026999;28;20564;-62
2021/05/14 06:23:26;;;;;;;27.03;20.07;;;;;;;11.73;79.20;99868.00;5039645;28;20221;-62
2021/05/14 06:25:52;;;;;;;27.40;19.80;;;;;;;11.76;79.17;99873.13;5035477;28;20205;-63
2021/05/14 06:28:20;;;;;;;27.17;20.47;;;;;;;11.81;79.21;99865.59;5038928;28;20218;-63
2021/05/14 06:30:47;;;;;;;28.07;20.40;;;;;;;11.87;79.19;99866.91;5032920;28;20221;-64
2021/05/14 06:33:13;;;;;;;24.97;19.23;;;;;;;11.91;78.83;99875.50;5033587;28;20234;-66
2021/05/14 06:35:40;;;;;;;25.33;19.40;;;;;;;11.96;78.66;99873.34;5037616;28;20329;-66
2021/05/14 06:38:07;;;;;;;25.70;19.70;;;;;;;12.00;78.68;99874.78;5040546;28;20210;-65
2021/05/14 06:40:33;;;;;;;25.77;19.73;;;;;;;12.05;78.84;99885.91;5039727;28;20202;-66
2021/05/14 06:42:59;;;;;;;27.13;20.23;;;;;;;12.09;78.63;99877.53;5035686;28;21202;-65
2021/05/14 06:45:25;;;;;;;28.10;20.60;;;;;;;12.13;78.51;99881.66;5036637;28;20211;-65
2021/05/14 06:47:53;;;;;;;31.03;20.63;;;;;;;12.17;78.15;99882.25;5033542;28;20205;-64
2021/05/14 06:50:19;;;;;;;27.37;19.97;;;;;;;12.21;77.80;99883.69;5026432;28;20211;-65
2021/05/14 06:52:45;;;;;;;32.10;21.87;;;;;;;12.26;78.15;99886.81;5030492;28;20734;-65
2021/05/14 06:55:11;;;;;;;34.00;22.40;;;;;;;12.31;77.88;99889.97;5027413;28;20237;-64
2021/05/14 06:57:38;;;;;;;34.17;22.53;;;;;;;12.34;77.81;99884.38;5038925;28;20201;-65
2021/05/14 07:00:06;;;;;;;30.47;21.23;;;;;;;12.40;77.61;99896.38;5037631;28;20246;-65
2021/05/14 07:02:32;;;;;;;32.63;22.87;;;;;;;12.44;77.48;99887.13;5038169;28;20223;-65
2021/05/14 07:04:59;;;;;;;30.17;22.30;;;;;;;12.47;77.41;99894.91;5037720;28;20720;-66
2021/05/14 07:07:25;;;;;;;31.07;22.90;;;;;;;12.49;77.30;99896.47;5029770;28;20202;-65
2021/05/14 07:09:51;;;;;;;32.40;22.40;;;;;;;12.55;77.18;99891.56;5036006;28;20227;-66
2021/05/14 07:12:17;;;;;;;36.47;24.10;;;;;;;12.61;76.94;99899.06;5032670;28;20228;-65
2021/05/14 07:14:43;;;;;;;36.17;22.67;;;;;;;12.64;76.90;99890.81;5033414;28;20304;-65
2021/05/14 07:17:09;;;;;;;34.73;22.80;;;;;;;12.67;76.26;99899.41;5033297;28;20847;-66
2021/05/14 07:19:35;;;;;;;37.67;24.07;;;;;;;12.70;76.14;99901.00;5030948;28;20232;-63
2021/05/14 07:22:04;;;;;;;37.37;24.47;;;;;;;12.73;76.04;99901.56;5033202;28;20238;-65
2021/05/14 07:24:30;;;;;;;38.00;24.50;;;;;;;12.79;76.19;99908.22;5035464;28;20508;-63
2021/05/14 07:26:56;;;;;;;35.40;23.87;;;;;;;12.84;76.00;99900.66;5032940;28;20301;-62
2021/05/14 07:29:22;;;;;;;35.70;22.70;;;;;;;12.87;75.70;99911.09;5033841;28;20671;-60
2021/05/14 07:31:48;;;;;;;35.40;23.70;;;;;;;12.88;75.35;99904.78;5030603;28;20217;-60
2021/05/14 07:34:14;;;;;;;35.83;24.67;;;;;;;12.93;75.07;99910.56;5030836;28;20250;-61
2021/05/14 07:36:40;;;;;;;37.87;24.03;;;;;;;12.97;74.97;99908.50;5031779;28;20896;-61
2021/05/14 07:39:07;;;;;;;39.43;26.27;;;;;;;12.99;74.90;99911.88;5030065;28;20264;-60
2021/05/14 07:41:33;;;;;;;41.53;24.70;;;;;;;13.05;74.67;99909.53;5032831;28;20298;-59
2021/05/14 07:43:59;;;;;;;37.40;24.23;;;;;;;13.08;74.34;99911.09;5035250;28;20398;-60
2021/05/14 07:46:25;;;;;;;38.60;23.87;;;;;;;13.11;74.14;99914.34;5037715;28;20201;-65
2021/05/14 07:48:51;;;;;;;35.43;23.97;;;;;;;13.11;73.62;99911.66;5031332;28;20198;-64
2021/05/14 07:51:18;;;;;;;38.53;23.87;;;;;;;13.12;73.71;99918.72;5031032;28;20205;-65
2021/05/14 07:53:44;;;;;;;35.80;23.53;;;;;;;13.14;73.26;99921.25;5033164;28;20313;-65
2021/05/14 07:56:11;;;;;;;34.87;23.47;;;;;;;13.16;73.16;99920.19;5039244;28;20430;-65
2021/05/14 07:58:37;;;;;;;32.80;22.53;;;;;;;13.22;73.10;99917.97;5028968;28;20625;-64
2021/05/14 08:01:03;;;;;;;36.43;23.43;;;;;;;13.27;72.87;99915.72;5026432;28;20528;-66
2021/05/14 08:03:29;;;;;;;37.63;22.47;;;;;;;13.33;72.66;99917.88;5029422;28;20230;-65
2021/05/14 08:05:55;;;;;;;34.73;22.33;;;;;;;13.39;72.57;99910.19;5028057;28;20208;-65
2021/05/14 08:08:23;;;;;;;34.67;22.23;;;;;;;13.41;72.23;99918.94;5032004;28;20209;-65
2021/05/14 08:10:54;;;;;;;34.37;22.67;;;;;;;13.40;71.32;99919.06;5034866;28;20213;-67
2021/05/14 08:13:21;;;;;;;34.40;21.80;;;;;;;13.42;71.85;99911.75;5028909;28;20225;-66
2021/05/14 08:15:47;;;;;;;33.00;21.47;;;;;;;13.44;71.68;99925.81;5037911;28;20677;-65
2021/05/14 08:18:13;;;;;;;31.03;20.90;;;;;;;13.49;71.64;99918.25;5030943;28;20202;-66
2021/05/14 08:20:41;;;;;;;30.93;21.57;;;;;;;13.55;71.30;99921.25;5030241;28;20256;-66
2021/05/14 08:23:08;;;;;;;35.90;22.93;;;;;;;13.63;71.32;99917.03;5032376;28;20719;-66
2021/05/14 08:25:35;;;;;;;32.83;22.30;;;;;;;13.72;71.12;99921.59;5033821;28;20547;-66
2021/05/14 08:28:01;;;;;;;34.57;22.13;;;;;;;13.83;71.33;99922.34;5034102;28;20209;-66
2021/05/14 08:30:28;;;;;;;31.23;22.50;;;;;;;13.97;70.82;99925.66;5031525;28;20214;-65
2021/05/14 08:32:54;;;;;;;31.00;20.90;;;;;;;14.10;70.11;99924.41;5027571;28;20221;-65
2021/05/14 08:35:20;;;;;;;31.77;20.03;;;;;;;14.21;70.11;99924.28;5028476;28;20225;-65
2021/05/14 08:37:47;;;;;;;30.60;21.03;;;;;;;14.31;69.21;99918.97;5030651;28;20217;-65
2021/05/14 08:40:13;;;;;;;29.30;21.00;;;;;;;14.44;69.22;99924.94;5029949;28;20202;-65
2021/05/14 08:42:41;;;;;;;29.23;20.23;;;;;;;14.55;68.91;99930.13;5026180;28;20225;-67
2021/05/14 08:45:08;;;;;;;24.90;19.47;;;;;;;14.63;68.06;99923.25;5029473;28;20581;-66
2021/05/14 08:47:36;;;;;;;27.57;20.30;;;;;;;14.68;67.43;99918.31;5030209;28;20198;-67
2021/05/14 08:50:04;;;;;;;26.47;19.30;;;;;;;14.74;67.37;99925.78;5030146;28;20206;-65
2021/05/14 08:52:30;;;;;;;28.17;18.60;;;;;;;14.78;66.96;99925.34;5027925;28;20599;-65
2021/05/14 08:54:58;;;;;;;26.63;18.63;;;;;;;14.82;67.02;99929.47;5027636;28;20703;-65
2021/05/14 08:57:24;;;;;;;28.60;19.67;;;;;;;14.86;66.50;99932.69;5031389;28;20632;-65
2021/05/14 08:59:51;;;;;;;27.37;19.77;;;;;;;14.88;66.01;99926.19;5030547;28;20554;-62
2021/05/14 09:02:17;;;;;;;25.87;20.37;;;;;;;14.90;66.37;99918.84;5031784;28;20230;-64
2021/05/14 09:04:44;;;;;;;25.10;19.70;;;;;;;14.94;66.16;99924.78;5034477;28;20206;-65
2021/05/14 09:07:13;;;;;;;26.50;19.57;;;;;;;15.01;66.00;99919.72;5040955;28;20198;-63
2021/05/14 09:09:39;;;;;;;24.33;18.97;;;;;;;15.09;66.31;99922.50;5045449;28;20637;-63
2021/05/14 09:12:07;;;;;;;26.67;19.73;;;;;;;15.16;65.86;99921.78;5030175;28;20206;-67
2021/05/14 09:14:35;;;;;;;24.13;20.33;;;;;;;15.26;65.95;99924.44;5039324;28;20229;-68
2021/05/14 09:17:06;;;;;;;28.13;20.47;;;;;;;15.34;65.81;99921.06;5042877;28;20205;-68
2021/05/14 09:19:34;;;;;;;24.33;18.83;;;;;;;15.42;65.13;99922.00;5040455;28;20556;-68
2021/05/14 09:22:08;;;;;;;23.27;18.27;;;;;;;15.55;65.17;99919.88;5027385;28;20206;-68
2021/05/14 09:24:35;;;;;;;22.13;17.77;;;;;;;15.66;64.88;99910.78;5028539;28;20198;-68
2021/05/14 09:27:15;;;;;;;21.97;17.33;;;;;;;15.80;64.28;99920.19;5029861;28;20206;-68
2021/05/14 09:29:42;;;;;;;23.80;17.70;;;;;;;15.92;63.81;99919.03;5032037;28;20197;-66
2021/05/14 09:32:22;;;;;;;20.17;17.47;;;;;;;16.01;63.44;99922.66;5025107;28;20989;-67
2021/05/14 09:34:49;;;;;;;19.10;16.43;;;;;;;16.05;62.64;99918.69;5040408;28;20237;-67
2021/05/14 09:37:16;;;;;;;19.73;16.50;;;;;;;16.06;62.21;99918.53;5038800;28;20252;-66
2021/05/14 09:39:43;;;;;;;20.97;17.00;;;;;;;16.07;61.95;99916.69;5039108;28;20210;-66
2021/05/14 09:42:09;;;;;;;21.17;16.43;;;;;;;16.10;61.81;99911.03;5027778;28;20215;-66
2021/05/14 09:44:36;;;;;;;18.43;15.23;;;;;;;16.15;61.34;99916.75;5022456;28;20584;-65
2021/05/14 09:47:03;;;;;;;24.17;18.00;;;;;;;16.17;61.58;99910.25;5026184;28;20261;-66
2021/05/14 09:49:29;;;;;;;23.13;17.10;;;;;;;16.24;61.36;99915.88;5031749;28;20256;-66
2021/05/14 09:51:57;;;;;;;19.10;16.13;;;;;;;16.30;60.96;99917.97;5021483;28;20271;-66
2021/05/14 09:54:28;;;;;;;19.10;15.50;;;;;;;16.38;61.42;99917.19;5051343;22;20227;-65
2021/05/14 09:57:17;;;;;;;19.50;16.17;;;;;;;16.46;60.85;99912.75;5023482;28;20338;-66
2021/05/14 09:59:44;;;;;;;18.60;14.93;;;;;;;16.55;60.58;99906.44;5030448;28;20215;-66
2021/05/14 10:02:20;;;;;;;18.40;14.80;;;;;;;16.59;60.15;99907.84;5028457;28;20201;-66
2021/05/14 10:04:46;;;;;;;18.23;14.27;;;;;;;16.66;60.05;99910.78;5006229;28;20262;-66
2021/05/14 10:07:13;;;;;;;18.53;13.97;;;;;;;16.75;59.39;99909.88;5006048;28;20682;-66
2021/05/14 10:09:41;;;;;;;16.63;13.13;;;;;;;16.76;58.80;99908.88;5002772;28;20677;-66
2021/05/14 10:12:08;;;;;;;16.37;12.57;;;;;;;16.74;58.53;99912.69;5007700;28;20204;-66
2021/05/14 10:14:36;;;;;;;15.43;12.27;;;;;;;16.72;58.52;99918.22;5007931;28;20250;-66
2021/05/14 10:17:02;;;;;;;14.13;12.47;;;;;;;16.76;58.57;99908.03;5007943;28;20231;-66
2021/05/14 10:19:29;;;;;;;15.30;12.87;;;;;;;16.78;58.16;99906.03;5003899;28;20212;-66
2021/05/14 10:21:56;;;;;;;17.10;13.33;;;;;;;16.79;58.35;99905.88;5008169;28;20210;-66
2021/05/14 10:24:38;;;;;;;18.67;14.50;;;;;;;16.85;58.48;99901.69;5007891;28;20637;-67
2021/05/14 10:27:17;;;;;;;15.47;12.60;;;;;;;16.92;58.02;99903.63;5003498;28;20207;-66
2021/05/14 10:29:44;;;;;;;18.37;13.43;;;;;;;16.95;57.82;99903.31;5005934;28;20295;-67
2021/05/14 10:32:11;;;;;;;15.43;12.80;;;;;;;17.02;57.62;99893.59;5004456;28;20207;-66
2021/05/14 10:34:37;;;;;;;13.63;11.73;;;;;;;17.09;57.37;99891.13;5002452;28;20318;-66
2021/05/14 10:37:03;;;;;;;11.93;10.33;;;;;;;17.18;56.72;99898.28;5005745;28;20207;-66
2021/05/14 10:39:35;;;;;;;21.43;12.60;;;;;;;17.21;56.05;99895.25;4997479;28;20684;-66
2021/05/14 10:42:05;;;;;;;11.07;9.50;;;;;;;17.25;55.61;99893.09;5001678;28;20297;-66
2021/05/14 10:44:52;;;;;;;11.77;8.63;;;;;;;17.23;54.39;99897.78;5002960;28;20227;-66
2021/05/14 10:47:48;;;;;;;12.50;10.90;;;;;;;17.17;54.21;99896.59;5002793;28;20206;-66
2021/05/14 10:50:34;;;;;;;12.73;10.97;;;;;;;17.19;54.43;99888.38;5002907;28;20606;-66
2021/05/14 10:53:39;;;;;;;11.37;9.93;;;;;;;17.20;54.57;99893.56;5004701;28;20243;-66
2021/05/14 10:56:25;;;;;;;13.30;10.63;;;;;;;17.24;54.75;99886.03;5003652;28;20222;-66
2021/05/14 10:58:51;;;;;;;13.40;10.83;;;;;;;17.22;54.48;99888.88;5009824;28;20678;-66
2021/05/14 11:01:32;;;;;;;11.53;10.33;;;;;;;17.21;54.46;99887.19;5000144;28;20210;-66
2021/05/14 11:03:59;;;;;;;16.83;10.87;;;;;;;17.14;53.95;99894.22;5010074;28;20228;-66
2021/05/14 11:06:25;;;;;;;13.20;9.70;;;;;;;17.10;53.48;99883.91;5007772;28;20251;-66
2021/05/14 11:09:00;;;;;;;15.33;10.20;;;;;;;17.06;53.55;99896.81;5003258;28;20700;-66
2021/05/14 11:11:26;;;;;;;13.43;10.43;;;;;;;17.02;53.43;99898.13;5004847;28;20209;-66
2021/05/14 11:13:52;;;;;;;12.23;10.10;;;;;;;17.05;53.65;99903.22;5010286;28;20225;-66
2021/05/14 11:16:41;;;;;;;14.73;10.43;;;;;;;17.12;53.87;99901.59;5010119;28;20283;-66
2021/05/14 11:19:26;;;;;;;16.20;10.03;;;;;;;17.13;53.56;99905.97;5009406;28;20770;-66
2021/05/14 11:22:08;;;;;;;11.27;10.10;;;;;;;17.15;53.45;99903.97;5001673;28;20205;-66
2021/05/14 11:24:37;;;;;;;13.43;10.93;;;;;;;17.20;53.71;99911.56;5001872;28;20322;-66
2021/05/14 11:27:05;;;;;;;14.53;11.80;;;;;;;17.22;53.95;99913.09;5007497;28;20580;-66